Terminal Aerodrome Forecast
Issued by NWS

Home | Current Version | Previous Version | Text Only | Print | Product List | Glossary Off
Versions: 1 2 3 4 5 6 7 8 9 10 11 12 13 14 15 16 17 18 19 20 21 22 23 24 25 26 27

338
FTUS43 KLOT 270900 AAA
TAFDPA
TAF AMD
KDPA 270900Z 2709/2806 18013G19KT 5SM -SHRA SCT008 OVC015
     FM271000 30014G20KT 6SM -SHRA BR BKN008 OVC012
     FM271200 26018G28KT 6SM -SHRA OVC010
     FM271600 25017G26KT P6SM BKN025
     FM272300 25010KT P6SM BKN035
     FM280400 20005KT P6SM FEW040 BKN150=

USA.gov is the U.S. government's official web portal to all federal, state and local government web resources and services.